Time;durP1;ratioP1;P1;durP2;ratioP2;P2;SDS_P1;SDS_P2;PMS_P1;PMS_P2;Temp;Humidity;BMP_temperature;BMP_pressure;BME280_temperature;BME280_humidity;BME280_pressure;Samples;Min_cycle;Max_cycle;Signal;HPM_P1;HPM_P2
2022/10/31 00:00:47;;;;;;;2.35;2.15;;;19.70;57.70;;;;;;5136187;28;20055;-10
2022/10/31 00:03:13;;;;;;;2.70;2.17;;;19.70;57.70;;;;;;5135801;28;20082;-10
2022/10/31 00:05:49;;;;;;;2.38;2.17;;;19.60;57.60;;;;;;5135973;28;20079;-10
2022/10/31 00:08:16;;;;;;;2.65;2.30;;;19.60;57.60;;;;;;5135867;28;20050;-10
2022/10/31 00:10:43;;;;;;;3.00;2.08;;;19.60;57.60;;;;;;5136220;28;20385;-10
2022/10/31 00:13:10;;;;;;;2.42;2.22;;;19.60;57.70;;;;;;5135718;28;20428;-10
2022/10/31 00:15:37;;;;;;;2.30;2.10;;;19.60;57.60;;;;;;5135310;27;20054;-10
2022/10/31 00:18:04;;;;;;;3.47;2.30;;;19.60;57.70;;;;;;5135618;28;20051;-10
2022/10/31 00:20:30;;;;;;;2.42;2.20;;;19.60;57.60;;;;;;5135773;28;20133;-10
2022/10/31 00:23:03;;;;;;;2.40;2.20;;;19.60;57.70;;;;;;5135559;28;20047;-10
2022/10/31 00:25:32;;;;;;;2.83;2.53;;;19.60;57.70;;;;;;5135656;28;20055;-9
2022/10/31 00:27:58;;;;;;;2.53;2.20;;;19.60;57.70;;;;;;5135235;28;20047;-10
2022/10/31 00:30:23;;;;;;;2.38;2.17;;;19.60;57.70;;;;;;5117126;28;20054;-10
2022/10/31 00:32:49;;;;;;;2.58;2.30;;;19.60;57.70;;;;;;5135618;28;20050;-10
2022/10/31 00:35:15;;;;;;;2.42;2.20;;;19.60;57.70;;;;;;5115457;28;20062;-10
2022/10/31 00:37:42;;;;;;;3.95;2.83;;;19.60;57.70;;;;;;5116989;28;20070;-9
2022/10/31 00:40:09;;;;;;;2.40;2.20;;;19.60;57.70;;;;;;5116299;28;20487;-9
2022/10/31 00:42:34;;;;;;;2.30;2.10;;;19.70;57.80;;;;;;5135984;28;20540;-10
2022/10/31 00:45:00;;;;;;;2.50;2.30;;;19.70;57.80;;;;;;5135471;28;20078;-10
2022/10/31 00:47:26;;;;;;;3.35;2.47;;;19.70;57.80;;;;;;5135423;28;20047;-10
2022/10/31 00:49:51;;;;;;;2.30;2.10;;;19.60;57.70;;;;;;5115758;28;20066;-10
2022/10/31 00:52:17;;;;;;;2.95;2.20;;;19.60;57.70;;;;;;5115616;28;20490;-10
2022/10/31 00:54:43;;;;;;;2.85;2.22;;;19.60;57.70;;;;;;5117147;28;20071;-10
2022/10/31 00:57:08;;;;;;;3.10;2.80;;;19.60;57.70;;;;;;5116807;28;20135;-9
2022/10/31 00:59:34;;;;;;;3.30;2.72;;;19.60;57.70;;;;;;5115325;28;20046;-10
2022/10/31 01:01:59;;;;;;;4.15;2.67;;;19.60;57.70;;;;;;5135329;28;20051;-10
2022/10/31 01:04:25;;;;;;;3.17;2.88;;;19.70;57.80;;;;;;5117243;28;20043;-10
2022/10/31 01:06:51;;;;;;;2.83;2.50;;;19.60;57.70;;;;;;5135183;28;20474;-9
2022/10/31 01:09:16;;;;;;;2.80;2.50;;;19.60;57.70;;;;;;5134985;28;20051;-10
2022/10/31 01:11:42;;;;;;;3.15;2.35;;;19.60;57.70;;;;;;5116560;28;20090;-10
2022/10/31 01:14:09;;;;;;;3.67;2.30;;;19.60;57.80;;;;;;5117085;28;20531;-10
2022/10/31 01:16:34;;;;;;;2.83;2.45;;;19.60;57.70;;;;;;5134940;28;20059;-9
2022/10/31 01:19:00;;;;;;;3.00;2.70;;;19.60;57.70;;;;;;5116050;28;20051;-9
2022/10/31 01:21:28;;;;;;;2.83;2.40;;;19.60;57.80;;;;;;5115553;28;20079;-10
2022/10/31 01:23:57;;;;;;;3.08;2.72;;;19.60;57.80;;;;;;5115536;28;20100;-10
2022/10/31 01:26:29;;;;;;;2.53;2.33;;;19.60;57.70;;;;;;5116088;28;20051;-9
2022/10/31 01:28:58;;;;;;;2.85;2.55;;;19.60;57.70;;;;;;5135078;28;20146;-10
2022/10/31 01:31:29;;;;;;;3.25;2.95;;;19.60;57.80;;;;;;5134664;28;20054;-10
2022/10/31 01:33:55;;;;;;;4.72;2.83;;;19.70;57.90;;;;;;5134705;28;20051;-10
2022/10/31 01:36:25;;;;;;;2.83;2.50;;;19.60;57.80;;;;;;5134623;28;20376;-10
2022/10/31 01:38:52;;;;;;;3.08;2.67;;;19.60;57.80;;;;;;5134538;28;20047;-10
2022/10/31 01:41:21;;;;;;;3.15;2.70;;;19.60;57.80;;;;;;5134400;28;20055;-10
2022/10/31 01:43:59;;;;;;;3.00;2.70;;;19.60;57.80;;;;;;5116515;28;20047;-10
2022/10/31 01:46:36;;;;;;;3.15;2.83;;;19.60;57.80;;;;;;5134618;28;20551;-10
2022/10/31 01:49:08;;;;;;;3.42;2.72;;;19.60;57.80;;;;;;5115585;28;20059;-11
2022/10/31 01:51:38;;;;;;;3.40;2.75;;;19.60;57.80;;;;;;5134688;28;20078;-10
2022/10/31 01:54:12;;;;;;;3.20;2.75;;;19.70;57.80;;;;;;5134678;28;20051;-10
2022/10/31 01:56:41;;;;;;;2.88;2.58;;;19.60;57.80;;;;;;5114258;28;20433;-9
2022/10/31 01:59:11;;;;;;;2.95;2.67;;;19.60;57.80;;;;;;5115824;28;20054;-10
2022/10/31 02:01:37;;;;;;;3.17;2.70;;;19.60;57.80;;;;;;5115985;28;20055;-9
2022/10/31 02:04:04;;;;;;;3.30;2.80;;;19.60;57.80;;;;;;5114948;28;20506;-10
2022/10/31 02:06:38;;;;;;;4.05;3.00;;;19.60;57.80;;;;;;5116000;28;20072;-9
2022/10/31 02:09:05;;;;;;;3.30;2.78;;;19.60;57.80;;;;;;5134611;28;20467;-10
2022/10/31 02:11:32;;;;;;;3.10;2.75;;;19.60;57.80;;;;;;5134183;28;20410;-9
2022/10/31 02:14:00;;;;;;;4.22;2.95;;;19.60;57.80;;;;;;5115616;28;20146;-10
2022/10/31 02:16:25;;;;;;;3.40;2.97;;;19.60;57.80;;;;;;5115538;28;20051;-10
2022/10/31 02:18:54;;;;;;;3.22;2.92;;;19.60;57.80;;;;;;5114799;28;20058;-10
2022/10/31 02:21:58;;;;;;;3.85;3.00;;;19.60;57.90;;;;;;5115296;28;20055;-9
2022/10/31 02:24:45;;;;;;;3.15;2.75;;;19.60;57.90;;;;;;5082148;28;20054;-10
2022/10/31 02:27:21;;;;;;;3.10;2.80;;;19.60;57.80;;;;;;5115918;28;20058;-10
2022/10/31 02:29:56;;;;;;;3.45;2.88;;;19.70;57.90;;;;;;5113892;28;20093;-10
2022/10/31 02:32:55;;;;;;;3.17;2.85;;;19.60;57.90;;;;;;5115310;28;20375;-9
2022/10/31 02:35:39;;;;;;;4.13;3.03;;;19.60;57.90;;;;;;5114600;28;20078;-9
2022/10/31 02:38:34;;;;;;;3.67;3.13;;;19.60;57.90;;;;;;5114276;28;20100;-10
2022/10/31 02:41:17;;;;;;;3.28;2.97;;;19.60;57.90;;;;;;5115094;28;20066;-10
2022/10/31 02:43:56;;;;;;;3.70;2.95;;;19.60;57.90;;;;;;5133636;28;20043;-10
2022/10/31 02:46:33;;;;;;;3.25;2.95;;;19.60;57.90;;;;;;5114595;28;20058;-9
2022/10/31 02:49:05;;;;;;;3.58;2.95;;;19.60;57.90;;;;;;5114869;28;20047;-10
2022/10/31 02:51:31;;;;;;;4.68;3.10;;;19.70;57.90;;;;;;5133504;28;20100;-9
2022/10/31 02:53:57;;;;;;;3.47;2.97;;;19.60;57.90;;;;;;5114969;28;20051;-10
2022/10/31 02:56:22;;;;;;;3.42;3.13;;;19.60;57.90;;;;;;5115285;28;20146;-10
2022/10/31 02:58:59;;;;;;;3.60;3.05;;;19.60;57.90;;;;;;5133311;28;20103;-9
2022/10/31 03:01:39;;;;;;;4.07;3.28;;;19.60;57.90;;;;;;5114879;28;20055;-10
2022/10/31 03:04:35;;;;;;;3.45;3.05;;;19.60;57.90;;;;;;5115345;28;20376;-10
2022/10/31 03:07:10;;;;;;;3.78;3.05;;;19.60;57.90;;;;;;5133180;28;20051;-10
2022/10/31 03:09:40;;;;;;;3.53;3.10;;;19.60;57.90;;;;;;5113375;28;20054;-10
2022/10/31 03:12:28;;;;;;;3.75;3.17;;;19.60;57.90;;;;;;5113691;28;20055;-10
2022/10/31 03:15:14;;;;;;;3.35;2.83;;;19.60;57.90;;;;;;5133157;28;20093;-10
2022/10/31 03:18:04;;;;;;;3.08;2.75;;;19.60;57.90;;;;;;5113419;28;20143;-10
2022/10/31 03:20:36;;;;;;;4.25;3.65;;;19.60;57.90;;;;;;5113872;28;20115;-10
2022/10/31 03:23:05;;;;;;;4.10;3.40;;;19.60;57.90;;;;;;5133524;28;20139;-10
2022/10/31 03:25:34;;;;;;;4.32;3.50;;;19.60;57.90;;;;;;5133002;28;20055;-9
2022/10/31 03:28:02;;;;;;;3.63;2.70;;;19.60;57.90;;;;;;5113193;28;20051;-10
2022/10/31 03:30:30;;;;;;;4.10;3.67;;;19.60;57.90;;;;;;5112959;28;20492;-9
2022/10/31 03:32:58;;;;;;;4.25;3.08;;;19.60;57.90;;;;;;5112696;28;20040;-10
2022/10/31 03:35:27;;;;;;;4.10;3.00;;;19.60;57.90;;;;;;5114362;28;20407;-10
2022/10/31 03:37:54;;;;;;;3.30;2.97;;;19.60;57.90;;;;;;5133043;28;20047;-10
2022/10/31 03:40:22;;;;;;;3.35;3.00;;;19.60;58.00;;;;;;5114424;28;20082;-9
2022/10/31 03:42:59;;;;;;;3.88;2.97;;;19.60;58.00;;;;;;5114858;28;20051;-10
2022/10/31 03:45:28;;;;;;;5.40;3.20;;;19.60;57.90;;;;;;5114697;28;20051;-10
2022/10/31 03:47:54;;;;;;;4.70;3.63;;;19.60;57.90;;;;;;5114624;28;20074;-10
2022/10/31 03:50:23;;;;;;;3.90;3.28;;;19.60;57.90;;;;;;5116357;28;20051;-9
2022/10/31 03:53:31;;;;;;;4.32;3.38;;;19.60;57.90;;;;;;5117725;28;20039;-10
2022/10/31 03:56:19;;;;;;;5.00;3.72;;;19.60;57.90;;;;;;5019571;28;20082;-10
2022/10/31 03:58:53;;;;;;;3.83;3.42;;;19.60;57.90;;;;;;5111014;28;20070;-10
2022/10/31 04:01:20;;;;;;;3.70;3.40;;;19.60;58.00;;;;;;5116508;28;20063;-10
2022/10/31 04:03:46;;;;;;;3.60;3.00;;;19.60;57.90;;;;;;5118200;28;20051;-9
2022/10/31 04:06:15;;;;;;;4.15;3.10;;;19.60;58.00;;;;;;5118194;28;20103;-10
2022/10/31 04:08:50;;;;;;;4.13;3.50;;;19.60;58.00;;;;;;5117379;28;20082;-10
2022/10/31 04:11:23;;;;;;;3.58;2.97;;;19.60;58.00;;;;;;5117960;28;20047;-10
2022/10/31 04:14:09;;;;;;;4.55;3.30;;;19.60;58.00;;;;;;5117489;28;20055;-9
2022/10/31 04:16:35;;;;;;;5.60;3.80;;;19.60;58.10;;;;;;5116051;28;20059;-10
2022/10/31 04:19:01;;;;;;;5.38;3.85;;;19.60;58.10;;;;;;5115238;28;20056;-10
2022/10/31 04:21:29;;;;;;;4.63;3.92;;;19.60;58.20;;;;;;5117192;28;20055;-10
2022/10/31 04:23:57;;;;;;;4.45;3.60;;;19.60;58.10;;;;;;5117246;28;20522;-10
2022/10/31 04:26:25;;;;;;;3.97;3.60;;;19.70;58.20;;;;;;5116416;28;20048;-9
2022/10/31 04:28:51;;;;;;;5.00;3.42;;;19.70;58.20;;;;;;5115756;28;20055;-10
2022/10/31 04:31:17;;;;;;;3.80;3.50;;;19.70;58.10;;;;;;5117171;28;20123;-9
2022/10/31 04:33:45;;;;;;;5.15;4.07;;;19.70;58.10;;;;;;5117074;28;20039;-10
2022/10/31 04:36:11;;;;;;;3.80;3.35;;;19.70;58.10;;;;;;5117077;28;20055;-10
2022/10/31 04:38:36;;;;;;;4.72;3.63;;;19.80;58.10;;;;;;5117318;28;20407;-10
2022/10/31 04:41:09;;;;;;;3.75;3.35;;;19.80;58.00;;;;;;5117470;28;20075;-10
2022/10/31 04:43:49;;;;;;;4.43;3.28;;;19.80;58.50;;;;;;5102107;28;20047;-10
2022/10/31 04:46:15;;;;;;;5.00;3.45;;;19.80;57.90;;;;;;5117476;28;20065;-10
2022/10/31 04:48:41;;;;;;;4.75;3.65;;;19.90;58.40;;;;;;5116920;28;20062;-9
2022/10/31 04:51:07;;;;;;;4.22;3.55;;;19.90;57.90;;;;;;5117147;28;20137;-9
2022/10/31 04:53:32;;;;;;;4.45;3.85;;;19.90;57.90;;;;;;5116689;28;20043;-10
2022/10/31 04:56:16;;;;;;;5.22;3.65;;;19.90;57.90;;;;;;5135406;28;20061;-9
2022/10/31 04:58:46;;;;;;;4.78;3.60;;;19.90;57.80;;;;;;5116526;28;20059;-10
2022/10/31 05:01:11;;;;;;;3.92;3.53;;;19.90;57.80;;;;;;5115553;28;20047;-10
2022/10/31 05:03:39;;;;;;;3.78;3.40;;;19.90;57.90;;;;;;5116636;28;20043;-10
2022/10/31 05:06:05;;;;;;;4.75;3.90;;;19.90;57.90;;;;;;5116624;28;20048;-10
2022/10/31 05:08:31;;;;;;;3.90;3.35;;;19.90;57.90;;;;;;5134985;28;20051;-9
2022/10/31 05:11:01;;;;;;;4.18;3.78;;;19.90;57.90;;;;;;5116573;28;20047;-10
2022/10/31 05:13:27;;;;;;;4.20;3.67;;;19.90;57.90;;;;;;5115724;28;20560;-10
2022/10/31 05:16:25;;;;;;;4.00;3.53;;;19.90;57.90;;;;;;5134623;28;20072;-10
2022/10/31 05:19:16;;;;;;;4.70;3.78;;;19.90;58.00;;;;;;5134674;28;20066;-10
2022/10/31 05:22:01;;;;;;;4.90;4.03;;;19.90;58.00;;;;;;5135174;28;20406;-10
2022/10/31 05:24:28;;;;;;;3.90;3.50;;;19.90;58.10;;;;;;5116352;28;20508;-9
2022/10/31 05:26:53;;;;;;;4.38;3.80;;;19.80;58.10;;;;;;5116339;28;20055;-10
2022/10/31 05:29:19;;;;;;;5.32;4.03;;;19.90;58.10;;;;;;5135066;28;20047;-10
2022/10/31 05:31:45;;;;;;;5.97;3.85;;;19.90;58.20;;;;;;5134564;28;20134;-10
2022/10/31 05:34:24;;;;;;;4.72;3.78;;;19.80;58.20;;;;;;5116335;28;20096;-10
2022/10/31 05:37:08;;;;;;;6.10;3.92;;;19.80;58.30;;;;;;5134645;28;20064;-10
2022/10/31 05:39:34;;;;;;;5.03;4.03;;;19.80;58.30;;;;;;5116067;28;20146;-11
2022/10/31 05:42:04;;;;;;;3.45;2.88;;;19.80;58.40;;;;;;5115792;28;20094;-10
2022/10/31 05:44:30;;;;;;;5.63;4.03;;;19.80;58.40;;;;;;5116067;28;20051;-10
2022/10/31 05:47:09;;;;;;;5.38;3.97;;;19.80;58.40;;;;;;5115891;28;20051;-10
2022/10/31 05:50:10;;;;;;;4.75;4.18;;;19.80;58.40;;;;;;5134166;28;20097;-10
2022/10/31 05:53:00;;;;;;;4.32;3.92;;;19.80;58.40;;;;;;5134738;28;20391;-10
2022/10/31 05:55:31;;;;;;;4.50;3.88;;;19.80;58.50;;;;;;5134219;28;20050;-10
2022/10/31 05:58:03;;;;;;;4.60;3.92;;;19.70;58.50;;;;;;5114679;28;20403;-9
2022/10/31 06:00:29;;;;;;;4.60;4.03;;;19.70;58.50;;;;;;5113709;28;20054;-10
2022/10/31 06:03:06;;;;;;;5.10;4.00;;;19.70;58.40;;;;;;5116020;28;20047;-9
2022/10/31 06:06:02;;;;;;;6.85;3.78;;;19.70;58.50;;;;;;5120633;28;20100;-10
2022/10/31 06:08:32;;;;;;;5.88;3.95;;;19.70;58.50;;;;;;5114116;28;20138;-10
2022/10/31 06:11:02;;;;;;;4.70;3.83;;;19.70;58.50;;;;;;5115675;28;20055;-9
2022/10/31 06:13:48;;;;;;;4.15;3.67;;;19.70;58.50;;;;;;5133478;27;20051;-10
2022/10/31 06:16:23;;;;;;;4.80;3.80;;;19.70;58.50;;;;;;5115962;28;20053;-10
2022/10/31 06:18:54;;;;;;;4.47;3.40;;;19.70;58.50;;;;;;5114381;28;20056;-10
2022/10/31 06:21:20;;;;;;;3.90;3.50;;;19.70;58.60;;;;;;5115445;28;20089;-10
2022/10/31 06:23:49;;;;;;;3.92;3.53;;;19.70;58.50;;;;;;5113782;28;20048;-10
2022/10/31 06:26:26;;;;;;;4.90;3.97;;;19.70;58.50;;;;;;5115470;28;20043;-10
2022/10/31 06:28:52;;;;;;;5.47;3.80;;;19.70;58.50;;;;;;5113521;28;20055;-10
2022/10/31 06:31:37;;;;;;;4.25;3.85;;;19.80;58.50;;;;;;5115487;28;20035;-10
2022/10/31 06:34:02;;;;;;;3.63;3.30;;;19.80;58.50;;;;;;5115301;28;20043;-9
2022/10/31 06:36:28;;;;;;;4.10;3.53;;;19.80;58.40;;;;;;5114546;28;20047;-9
2022/10/31 06:38:54;;;;;;;5.25;3.92;;;19.80;58.40;;;;;;5113908;28;20146;-10
2022/10/31 06:41:22;;;;;;;5.28;4.18;;;19.80;58.30;;;;;;5115301;28;20061;-10
2022/10/31 06:43:49;;;;;;;4.00;3.60;;;19.80;58.30;;;;;;5115111;28;20479;-12
2022/10/31 06:46:52;;;;;;;5.53;4.40;;;19.80;58.40;;;;;;5132190;28;20396;-10
2022/10/31 06:49:44;;;;;;;5.00;4.13;;;19.80;58.30;;;;;;5099689;28;20058;-10
2022/10/31 06:52:14;;;;;;;5.63;4.03;;;19.80;58.40;;;;;;5115687;28;20147;-10
2022/10/31 06:54:40;;;;;;;4.10;3.63;;;19.80;58.30;;;;;;5115025;28;20071;-9
2022/10/31 06:57:05;;;;;;;4.18;3.63;;;19.80;58.30;;;;;;5115571;28;20050;-10
2022/10/31 06:59:31;;;;;;;6.00;3.50;;;19.80;58.30;;;;;;5113765;28;20403;-10
2022/10/31 07:02:14;;;;;;;4.97;4.20;;;19.80;58.20;;;;;;5114236;28;20043;-10
2022/10/31 07:04:41;;;;;;;5.22;4.05;;;19.90;58.30;;;;;;5133412;28;20054;-10
2022/10/31 07:07:07;;;;;;;4.55;4.10;;;19.90;58.30;;;;;;5115245;28;20455;-10
2022/10/31 07:09:34;;;;;;;5.25;4.28;;;19.90;58.30;;;;;;5114740;28;20074;-10
2022/10/31 07:12:03;;;;;;;3.97;3.58;;;19.80;58.30;;;;;;5114758;28;20138;-10
2022/10/31 07:14:30;;;;;;;4.40;4.00;;;19.80;58.30;;;;;;5114841;28;20054;-10
2022/10/31 07:16:55;;;;;;;7.00;3.88;;;19.90;58.30;;;;;;5114707;28;20059;-11
2022/10/31 07:19:28;;;;;;;5.00;4.50;;;19.90;58.40;;;;;;5094855;28;20048;-10
2022/10/31 07:21:53;;;;;;;4.45;3.83;;;19.80;58.30;;;;;;5114627;28;20054;-10
2022/10/31 07:24:19;;;;;;;4.72;3.90;;;19.80;58.30;;;;;;5115476;28;20095;-10
2022/10/31 07:27:03;;;;;;;6.20;4.03;;;19.80;58.30;;;;;;5136707;28;20456;-10
2022/10/31 07:29:29;;;;;;;3.90;3.35;;;19.80;58.40;;;;;;5117984;28;20051;-10
2022/10/31 07:31:55;;;;;;;4.55;3.42;;;19.80;58.30;;;;;;5118427;28;20051;-10
2022/10/31 07:34:25;;;;;;;5.05;4.05;;;19.80;58.40;;;;;;5118682;28;20078;-10
2022/10/31 07:37:19;;;;;;;3.90;3.55;;;19.80;58.30;;;;;;5118936;28;20054;-10
2022/10/31 07:39:45;;;;;;;4.43;4.03;;;19.80;58.40;;;;;;5117923;28;20051;-10
2022/10/31 07:42:10;;;;;;;5.07;4.13;;;19.80;58.40;;;;;;5117889;28;20049;-10
2022/10/31 07:44:41;;;;;;;4.72;4.05;;;19.80;58.40;;;;;;5118640;28;20081;-10
2022/10/31 07:47:25;;;;;;;4.20;3.80;;;19.80;58.40;;;;;;5136416;28;20058;-11
2022/10/31 07:50:12;;;;;;;5.35;3.80;;;19.80;58.40;;;;;;5136503;28;20057;-10
2022/10/31 07:53:04;;;;;;;4.00;3.58;;;19.80;58.40;;;;;;5136749;28;20150;-10
2022/10/31 07:55:52;;;;;;;5.32;3.80;;;19.80;58.40;;;;;;5118578;28;20043;-10
2022/10/31 07:58:18;;;;;;;4.25;3.78;;;19.80;58.40;;;;;;5117549;28;20054;-10
2022/10/31 08:00:47;;;;;;;4.32;3.88;;;19.80;58.40;;;;;;5117756;28;20054;-10
2022/10/31 08:03:18;;;;;;;5.13;4.05;;;19.80;58.40;;;;;;5117237;28;20053;-10
2022/10/31 08:06:02;;;;;;;4.43;3.95;;;19.80;58.40;;;;;;5136244;28;20061;-10
2022/10/31 08:08:50;;;;;;;4.88;3.72;;;19.90;58.40;;;;;;5135939;28;20054;-10
2022/10/31 08:11:16;;;;;;;5.38;4.10;;;19.90;58.30;;;;;;5117477;28;20490;-10
2022/10/31 08:13:42;;;;;;;4.00;3.45;;;19.90;58.30;;;;;;5117791;28;20051;-10
2022/10/31 08:16:09;;;;;;;5.13;3.90;;;19.90;58.30;;;;;;5117396;28;20123;-10
2022/10/31 08:18:42;;;;;;;3.50;3.20;;;19.90;58.30;;;;;;5118054;28;20475;-10
2022/10/31 08:21:12;;;;;;;3.92;3.53;;;19.90;58.20;;;;;;5117943;28;20115;-10
2022/10/31 08:23:37;;;;;;;5.22;4.18;;;19.90;58.20;;;;;;5117635;28;20419;-10
2022/10/31 08:26:05;;;;;;;5.05;3.83;;;19.90;58.20;;;;;;5117882;28;20128;-10
2022/10/31 08:28:32;;;;;;;4.55;3.75;;;19.90;58.20;;;;;;5117222;28;20059;-10
2022/10/31 08:30:58;;;;;;;4.07;3.53;;;19.90;58.20;;;;;;5117691;28;20051;-10
2022/10/31 08:33:38;;;;;;;5.28;4.00;;;19.90;58.20;;;;;;5135778;28;20483;-10
2022/10/31 08:36:36;;;;;;;4.35;3.95;;;19.90;58.20;;;;;;5135241;27;20387;-10
2022/10/31 08:39:13;;;;;;;4.22;3.83;;;19.90;58.10;;;;;;5116382;28;20403;-10
2022/10/31 08:41:39;;;;;;;5.72;3.63;;;19.90;58.10;;;;;;5117532;28;20051;-10
2022/10/31 08:44:09;;;;;;;4.07;3.67;;;19.90;58.10;;;;;;5117280;28;20043;-10
2022/10/31 08:46:36;;;;;;;4.40;3.78;;;19.90;58.10;;;;;;5116883;28;20054;-10
2022/10/31 08:49:01;;;;;;;4.28;3.45;;;19.90;58.10;;;;;;5135399;28;20055;-10
2022/10/31 08:51:27;;;;;;;4.35;3.63;;;19.90;58.10;;;;;;5116895;28;20043;-10
2022/10/31 08:53:54;;;;;;;4.50;3.97;;;19.90;58.10;;;;;;5135349;28;20092;-10
2022/10/31 08:56:32;;;;;;;4.18;3.78;;;19.90;58.20;;;;;;5135377;28;20059;-10
2022/10/31 08:58:59;;;;;;;4.50;3.90;;;19.90;58.20;;;;;;5116721;28;20483;-10
2022/10/31 09:01:42;;;;;;;4.95;3.80;;;19.90;58.20;;;;;;5116838;28;20051;-10
2022/10/31 09:04:08;;;;;;;4.93;3.90;;;19.90;58.30;;;;;;5135351;28;20054;-10
2022/10/31 09:06:34;;;;;;;4.72;3.70;;;19.90;58.30;;;;;;5116690;28;20047;-10
2022/10/31 09:09:00;;;;;;;4.25;3.85;;;19.90;58.30;;;;;;5116608;28;20050;-10
2022/10/31 09:11:26;;;;;;;5.25;4.25;;;19.90;58.30;;;;;;5135152;28;20059;-10
2022/10/31 09:14:10;;;;;;;5.40;4.03;;;19.90;58.30;;;;;;5135142;28;20130;-10
2022/10/31 09:16:38;;;;;;;4.38;3.60;;;19.90;58.30;;;;;;5135245;28;20077;-10
2022/10/31 09:19:06;;;;;;;4.72;4.15;;;19.90;58.90;;;;;;5116410;28;20406;-10
2022/10/31 09:21:32;;;;;;;5.05;3.85;;;19.90;58.30;;;;;;5115467;28;20059;-10
2022/10/31 09:23:58;;;;;;;4.07;3.67;;;19.90;58.30;;;;;;5116215;28;20051;-10
2022/10/31 09:26:24;;;;;;;4.55;3.97;;;19.80;58.20;;;;;;5116831;28;20456;-10
2022/10/31 09:28:57;;;;;;;4.53;3.88;;;19.90;58.30;;;;;;5116641;28;20099;-10
2022/10/31 09:31:23;;;;;;;6.25;3.88;;;19.80;58.20;;;;;;5115903;28;20070;-10
2022/10/31 09:33:54;;;;;;;5.15;3.67;;;19.90;58.30;;;;;;5116567;28;20490;-10
2022/10/31 09:36:36;;;;;;;4.30;3.75;;;19.90;58.30;;;;;;5135086;28;20530;-10
2022/10/31 09:39:03;;;;;;;4.85;3.83;;;19.90;58.30;;;;;;5115979;28;20091;-10
2022/10/31 09:41:53;;;;;;;4.57;3.60;;;19.90;58.20;;;;;;5116219;28;20398;-10
2022/10/31 09:44:47;;;;;;;4.25;3.85;;;19.90;58.20;;;;;;5115895;28;20103;-10
2022/10/31 09:47:38;;;;;;;4.70;3.70;;;19.90;58.20;;;;;;5115213;28;20058;-10
2022/10/31 09:50:52;;;;;;;4.35;3.58;;;19.90;58.10;;;;;;5094550;28;20051;-10
2022/10/31 09:54:00;;;;;;;4.32;3.50;;;19.90;58.30;;;;;;5116390;28;20477;-10
2022/10/31 09:56:28;;;;;;;4.72;3.47;;;19.90;58.20;;;;;;5115890;28;20162;-10
2022/10/31 09:59:00;;;;;;;4.00;3.50;;;19.90;58.20;;;;;;5116174;28;20066;-10
2022/10/31 10:01:49;;;;;;;4.47;3.88;;;19.90;58.20;;;;;;5115776;28;20698;-10
2022/10/31 10:04:40;;;;;;;4.82;3.80;;;19.90;58.20;;;;;;5113980;28;20469;-10
2022/10/31 10:07:46;;;;;;;4.60;3.55;;;19.90;58.20;;;;;;5115011;28;20109;-10
2022/10/31 10:10:40;;;;;;;4.55;3.30;;;19.90;58.20;;;;;;5134549;28;20046;-10
2022/10/31 10:13:56;;;;;;;5.20;4.13;;;19.90;58.20;;;;;;5113804;28;20396;-10
2022/10/31 10:16:32;;;;;;;4.80;3.58;;;19.90;58.10;;;;;;5134103;28;20062;-10
2022/10/31 10:19:31;;;;;;;4.35;3.42;;;19.90;58.10;;;;;;5133826;28;20076;-10
2022/10/31 10:22:31;;;;;;;4.47;3.28;;;19.90;58.70;;;;;;5133928;28;20505;-10
2022/10/31 10:25:23;;;;;;;5.38;3.97;;;19.90;58.10;;;;;;5133956;28;20043;-10
2022/10/31 10:28:08;;;;;;;3.85;3.47;;;19.90;58.10;;;;;;5133911;28;20092;-10
2022/10/31 10:30:49;;;;;;;5.25;3.80;;;19.90;58.10;;;;;;5133365;28;20487;-10
2022/10/31 10:33:27;;;;;;;4.83;3.57;;;19.90;58.20;;;;;;5133369;28;20078;-10
2022/10/31 10:36:24;;;;;;;3.47;3.15;;;19.90;58.10;;;;;;5134168;28;20059;-10
2022/10/31 10:38:53;;;;;;;4.80;3.55;;;19.90;58.10;;;;;;5133609;28;20051;-10
2022/10/31 10:41:22;;;;;;;4.07;3.67;;;19.90;58.10;;;;;;5133988;28;20420;-10
2022/10/31 10:43:53;;;;;;;3.55;3.25;;;19.90;58.10;;;;;;5133643;28;20086;-10
2022/10/31 10:49:52;;;;;;;3.97;3.45;;;19.90;58.10;;;;;;5133353;28;20062;-10
2022/10/31 10:52:40;;;;;;;5.00;3.33;;;20.00;58.10;;;;;;5133576;28;20107;-10
2022/10/31 10:55:15;;;;;;;3.95;3.22;;;19.90;58.10;;;;;;5133535;28;20046;-10
2022/10/31 10:58:07;;;;;;;5.53;3.53;;;19.90;58.00;;;;;;5133966;28;20055;-10
2022/10/31 11:00:46;;;;;;;5.10;3.90;;;19.90;58.10;;;;;;5132111;28;20149;-10
2022/10/31 11:03:12;;;;;;;4.25;3.38;;;19.90;58.00;;;;;;5137126;28;20051;-10
2022/10/31 11:05:59;;;;;;;3.75;3.40;;;20.00;58.00;;;;;;5137005;28;20180;-10
2022/10/31 11:08:35;;;;;;;3.72;3.42;;;19.90;58.00;;;;;;5136903;28;20411;-10
2022/10/31 11:11:03;;;;;;;4.57;3.70;;;19.90;58.00;;;;;;5137058;28;20047;-10
2022/10/31 11:13:30;;;;;;;4.38;3.70;;;19.90;58.00;;;;;;5136966;28;20047;-10
2022/10/31 11:16:08;;;;;;;5.40;3.30;;;19.90;58.00;;;;;;5136979;28;20070;-10
2022/10/31 11:18:39;;;;;;;4.50;3.50;;;19.90;58.00;;;;;;5137054;28;20135;-10
2022/10/31 11:21:05;;;;;;;3.40;3.03;;;20.00;58.00;;;;;;5137269;28;20050;-10
2022/10/31 11:23:32;;;;;;;3.58;3.13;;;20.00;58.00;;;;;;5137350;28;20576;-10
2022/10/31 11:26:03;;;;;;;4.50;3.63;;;20.00;58.00;;;;;;5136804;28;20087;-10
2022/10/31 11:28:32;;;;;;;4.28;3.58;;;20.00;57.90;;;;;;5136990;28;20437;-10
2022/10/31 11:30:59;;;;;;;4.10;3.70;;;20.00;57.90;;;;;;5136660;28;20056;-10
2022/10/31 11:33:38;;;;;;;3.92;3.50;;;20.00;57.90;;;;;;5136680;28;20055;-10
2022/10/31 11:36:28;;;;;;;3.70;3.40;;;20.00;57.90;;;;;;5137004;28;20352;-10
2022/10/31 11:38:54;;;;;;;3.75;3.42;;;20.00;57.90;;;;;;5119282;28;20051;-10
2022/10/31 11:41:27;;;;;;;4.65;3.70;;;20.00;57.90;;;;;;5136499;28;20490;-10
2022/10/31 11:43:55;;;;;;;3.63;3.10;;;20.00;57.90;;;;;;5136856;28;20047;-10
2022/10/31 11:46:48;;;;;;;5.30;3.60;;;20.00;57.90;;;;;;5136521;28;20054;-10
2022/10/31 11:49:35;;;;;;;4.68;3.55;;;20.00;57.90;;;;;;5126818;28;20061;-10
2022/10/31 11:52:21;;;;;;;4.00;3.42;;;20.00;57.90;;;;;;5136746;28;20481;-10
2022/10/31 11:54:58;;;;;;;4.07;3.47;;;20.00;57.90;;;;;;5136060;28;20051;-10
2022/10/31 11:57:30;;;;;;;3.83;3.28;;;20.00;57.90;;;;;;5136109;28;20051;-10
2022/10/31 11:59:58;;;;;;;3.80;3.35;;;20.00;57.90;;;;;;5136315;28;20043;-10
2022/10/31 12:02:25;;;;;;;3.70;3.30;;;20.00;57.90;;;;;;5136207;28;20142;-10
2022/10/31 12:05:32;;;;;;;3.28;2.97;;;20.00;57.90;;;;;;5136120;28;20479;-10
2022/10/31 12:07:58;;;;;;;4.05;3.20;;;20.00;57.90;;;;;;5136061;28;20050;-10
2022/10/31 12:10:39;;;;;;;4.70;3.45;;;20.00;57.80;;;;;;5135289;27;20063;-10
2022/10/31 12:13:32;;;;;;;3.97;3.53;;;20.00;57.90;;;;;;5136337;28;20161;-10
2022/10/31 12:16:12;;;;;;;3.55;3.17;;;20.00;57.80;;;;;;5136027;28;20054;-10
2022/10/31 12:18:50;;;;;;;3.95;3.15;;;20.00;57.80;;;;;;5135968;28;20051;-10
2022/10/31 12:21:27;;;;;;;3.40;3.10;;;20.00;57.80;;;;;;5136562;28;20054;-10
2022/10/31 12:24:24;;;;;;;3.35;2.90;;;20.00;57.80;;;;;;5135799;28;20053;-10
2022/10/31 12:26:58;;;;;;;3.95;3.40;;;20.10;57.90;;;;;;5135809;28;20142;-10
2022/10/31 12:29:36;;;;;;;3.78;3.40;;;20.00;57.80;;;;;;5135613;28;20456;-10
2022/10/31 12:32:20;;;;;;;3.70;3.40;;;20.00;57.80;;;;;;5136133;28;20051;-10
2022/10/31 12:35:15;;;;;;;4.18;3.45;;;20.00;57.80;;;;;;5135698;28;20050;-10
2022/10/31 12:37:52;;;;;;;3.92;3.22;;;20.00;57.80;;;;;;5135684;28;20103;-10
2022/10/31 12:41:07;;;;;;;4.03;3.53;;;20.00;57.80;;;;;;5135492;28;20133;-10
2022/10/31 12:44:06;;;;;;;5.43;3.45;;;20.00;57.90;;;;;;5129288;28;20108;-10
2022/10/31 12:46:37;;;;;;;3.90;3.50;;;20.10;57.90;;;;;;5135386;28;20479;-10
2022/10/31 12:49:03;;;;;;;3.85;3.45;;;20.00;57.80;;;;;;5135509;28;20058;-10
2022/10/31 12:51:37;;;;;;;3.83;3.38;;;20.00;57.80;;;;;;5135934;28;20491;-10
2022/10/31 12:54:13;;;;;;;3.45;3.15;;;20.00;57.80;;;;;;5135546;28;20043;-10
2022/10/31 12:56:54;;;;;;;3.28;2.97;;;20.10;57.90;;;;;;5135364;28;20199;-10
2022/10/31 12:59:34;;;;;;;4.18;3.75;;;20.00;57.80;;;;;;5135372;28;20051;-10
2022/10/31 13:02:20;;;;;;;2.55;2.15;;;20.00;57.80;;;;;;5135345;28;20086;-10
2022/10/31 13:05:23;;;;;;;4.30;3.50;;;20.00;57.90;;;;;;5134805;28;20491;-10
2022/10/31 13:08:09;;;;;;;3.80;3.03;;;20.00;57.80;;;;;;5129791;28;20108;-10
2022/10/31 13:10:49;;;;;;;4.50;3.47;;;20.00;57.80;;;;;;5134867;28;20051;-10
2022/10/31 13:13:36;;;;;;;4.10;3.50;;;20.00;57.80;;;;;;5134851;28;20071;-10
2022/10/31 13:16:14;;;;;;;4.15;3.38;;;20.00;57.80;;;;;;5134848;28;20051;-10
2022/10/31 13:18:44;;;;;;;3.85;3.45;;;20.00;57.80;;;;;;5135038;28;20145;-10
2022/10/31 13:21:24;;;;;;;3.63;3.28;;;20.00;57.90;;;;;;5134910;27;20050;-10
2022/10/31 13:23:51;;;;;;;3.95;3.22;;;20.00;57.90;;;;;;5134226;28;20050;-10
2022/10/31 13:26:42;;;;;;;4.05;3.03;;;20.00;57.90;;;;;;5134947;28;20108;-10
2022/10/31 13:29:31;;;;;;;4.30;3.55;;;20.00;57.90;;;;;;5133933;28;20047;-11